sensor_id;sensor_type;location;lat;lon;timestamp;P1;durP1;ratioP1;P2;durP2;ratioP2
20859;SDS011;10590;48.154;11.514;2023-01-29T00:03:51;216.63;;;83.97;;
20859;SDS011;10590;48.154;11.514;2023-01-29T00:08:54;37.40;;;20.43;;
20859;SDS011;10590;48.154;11.514;2023-01-29T00:13:56;37.67;;;19.97;;
20859;SDS011;10590;48.154;11.514;2023-01-29T00:18:59;36.70;;;19.93;;
20859;SDS011;10590;48.154;11.514;2023-01-29T00:24:02;35.63;;;19.93;;
20859;SDS011;10590;48.154;11.514;2023-01-29T00:29:04;38.60;;;20.77;;
20859;SDS011;10590;48.154;11.514;2023-01-29T00:34:06;41.40;;;21.20;;
20859;SDS011;10590;48.154;11.514;2023-01-29T00:39:09;40.57;;;20.43;;
20859;SDS011;10590;48.154;11.514;2023-01-29T00:44:11;41.23;;;20.47;;
20859;SDS011;10590;48.154;11.514;2023-01-29T00:49:30;36.43;;;20.20;;
20859;SDS011;10590;48.154;11.514;2023-01-29T00:54:33;33.73;;;19.43;;
20859;SDS011;10590;48.154;11.514;2023-01-29T00:59:35;36.30;;;19.17;;
20859;SDS011;10590;48.154;11.514;2023-01-29T01:04:37;35.37;;;19.43;;
20859;SDS011;10590;48.154;11.514;2023-01-29T01:09:40;34.33;;;19.57;;
20859;SDS011;10590;48.154;11.514;2023-01-29T01:14:59;37.30;;;20.33;;
20859;SDS011;10590;48.154;11.514;2023-01-29T01:20:01;37.30;;;18.87;;
20859;SDS011;10590;48.154;11.514;2023-01-29T01:25:04;32.30;;;18.57;;
20859;SDS011;10590;48.154;11.514;2023-01-29T01:30:09;37.67;;;19.20;;
20859;SDS011;10590;48.154;11.514;2023-01-29T01:35:11;33.00;;;17.77;;
20859;SDS011;10590;48.154;11.514;2023-01-29T01:40:15;30.80;;;18.00;;
20859;SDS011;10590;48.154;11.514;2023-01-29T01:45:20;30.43;;;16.77;;
20859;SDS011;10590;48.154;11.514;2023-01-29T01:50:25;33.50;;;17.73;;
20859;SDS011;10590;48.154;11.514;2023-01-29T01:55:32;27.73;;;15.90;;
20859;SDS011;10590;48.154;11.514;2023-01-29T02:00:36;27.60;;;15.63;;
20859;SDS011;10590;48.154;11.514;2023-01-29T02:05:39;23.90;;;14.30;;
20859;SDS011;10590;48.154;11.514;2023-01-29T02:11:00;20.17;;;13.30;;
20859;SDS011;10590;48.154;11.514;2023-01-29T02:16:02;21.47;;;12.80;;
20859;SDS011;10590;48.154;11.514;2023-01-29T02:21:06;18.97;;;12.43;;
20859;SDS011;10590;48.154;11.514;2023-01-29T02:32:00;20.50;;;12.43;;
20859;SDS011;10590;48.154;11.514;2023-01-29T02:37:09;19.17;;;12.57;;
20859;SDS011;10590;48.154;11.514;2023-01-29T02:42:14;17.97;;;11.57;;
20859;SDS011;10590;48.154;11.514;2023-01-29T02:47:29;17.13;;;12.00;;
20859;SDS011;10590;48.154;11.514;2023-01-29T02:52:36;15.63;;;11.23;;
20859;SDS011;10590;48.154;11.514;2023-01-29T02:57:43;14.67;;;10.43;;
20859;SDS011;10590;48.154;11.514;2023-01-29T03:02:53;14.33;;;9.37;;
20859;SDS011;10590;48.154;11.514;2023-01-29T03:07:59;11.37;;;7.83;;
20859;SDS011;10590;48.154;11.514;2023-01-29T03:13:05;11.67;;;7.97;;
20859;SDS011;10590;48.154;11.514;2023-01-29T03:18:15;10.37;;;8.40;;
20859;SDS011;10590;48.154;11.514;2023-01-29T03:23:22;10.80;;;8.53;;
20859;SDS011;10590;48.154;11.514;2023-01-29T03:28:42;13.50;;;9.20;;
20859;SDS011;10590;48.154;11.514;2023-01-29T03:34:05;12.43;;;9.03;;
20859;SDS011;10590;48.154;11.514;2023-01-29T03:39:15;12.60;;;9.57;;
20859;SDS011;10590;48.154;11.514;2023-01-29T03:44:18;14.13;;;9.90;;
20859;SDS011;10590;48.154;11.514;2023-01-29T03:49:31;13.87;;;10.13;;
20859;SDS011;10590;48.154;11.514;2023-01-29T03:54:46;16.60;;;10.90;;
20859;SDS011;10590;48.154;11.514;2023-01-29T03:59:57;15.47;;;10.57;;
20859;SDS011;10590;48.154;11.514;2023-01-29T04:05:08;15.67;;;9.70;;
20859;SDS011;10590;48.154;11.514;2023-01-29T04:10:15;13.97;;;9.57;;
20859;SDS011;10590;48.154;11.514;2023-01-29T04:15:19;13.00;;;9.83;;
20859;SDS011;10590;48.154;11.514;2023-01-29T04:20:25;16.20;;;10.63;;
20859;SDS011;10590;48.154;11.514;2023-01-29T04:25:28;18.30;;;11.67;;
20859;SDS011;10590;48.154;11.514;2023-01-29T04:30:37;17.57;;;12.00;;
20859;SDS011;10590;48.154;11.514;2023-01-29T04:36:02;19.50;;;12.23;;
20859;SDS011;10590;48.154;11.514;2023-01-29T04:41:19;17.60;;;12.23;;
20859;SDS011;10590;48.154;11.514;2023-01-29T04:46:26;20.50;;;12.83;;
20859;SDS011;10590;48.154;11.514;2023-01-29T04:51:34;17.20;;;11.88;;
20859;SDS011;10590;48.154;11.514;2023-01-29T04:56:47;19.40;;;12.10;;
20859;SDS011;10590;48.154;11.514;2023-01-29T05:01:55;14.00;;;10.90;;
20859;SDS011;10590;48.154;11.514;2023-01-29T05:07:02;15.20;;;11.17;;
20859;SDS011;10590;48.154;11.514;2023-01-29T05:12:08;17.27;;;11.73;;
20859;SDS011;10590;48.154;11.514;2023-01-29T05:17:13;16.87;;;11.13;;
20859;SDS011;10590;48.154;11.514;2023-01-29T05:22:17;21.03;;;12.43;;
20859;SDS011;10590;48.154;11.514;2023-01-29T05:27:23;18.33;;;12.13;;
20859;SDS011;10590;48.154;11.514;2023-01-29T05:32:49;18.83;;;12.90;;
20859;SDS011;10590;48.154;11.514;2023-01-29T05:37:55;18.77;;;12.90;;
20859;SDS011;10590;48.154;11.514;2023-01-29T05:42:57;18.57;;;11.73;;
20859;SDS011;10590;48.154;11.514;2023-01-29T05:47:59;16.87;;;12.07;;
20859;SDS011;10590;48.154;11.514;2023-01-29T05:53:02;16.90;;;11.63;;
20859;SDS011;10590;48.154;11.514;2023-01-29T05:58:04;15.20;;;11.33;;
20859;SDS011;10590;48.154;11.514;2023-01-29T06:03:06;17.73;;;11.93;;
20859;SDS011;10590;48.154;11.514;2023-01-29T06:08:09;21.30;;;13.23;;
20859;SDS011;10590;48.154;11.514;2023-01-29T06:13:11;16.63;;;11.93;;
20859;SDS011;10590;48.154;11.514;2023-01-29T06:18:12;18.40;;;12.73;;
20859;SDS011;10590;48.154;11.514;2023-01-29T06:23:15;20.87;;;13.20;;
20859;SDS011;10590;48.154;11.514;2023-01-29T06:28:17;20.03;;;13.20;;
20859;SDS011;10590;48.154;11.514;2023-01-29T06:33:19;19.00;;;12.60;;
20859;SDS011;10590;48.154;11.514;2023-01-29T06:38:22;21.17;;;13.27;;
20859;SDS011;10590;48.154;11.514;2023-01-29T06:43:24;20.73;;;13.47;;
20859;SDS011;10590;48.154;11.514;2023-01-29T06:48:25;20.30;;;13.80;;
20859;SDS011;10590;48.154;11.514;2023-01-29T06:53:28;20.27;;;13.50;;
20859;SDS011;10590;48.154;11.514;2023-01-29T06:58:30;22.30;;;13.87;;
20859;SDS011;10590;48.154;11.514;2023-01-29T07:03:32;23.10;;;14.37;;
20859;SDS011;10590;48.154;11.514;2023-01-29T07:08:41;21.53;;;14.37;;
20859;SDS011;10590;48.154;11.514;2023-01-29T07:13:43;23.30;;;14.20;;
20859;SDS011;10590;48.154;11.514;2023-01-29T07:18:45;21.43;;;13.87;;
20859;SDS011;10590;48.154;11.514;2023-01-29T07:23:48;22.70;;;14.17;;
20859;SDS011;10590;48.154;11.514;2023-01-29T07:28:49;19.97;;;13.00;;
20859;SDS011;10590;48.154;11.514;2023-01-29T07:33:51;18.40;;;12.70;;
20859;SDS011;10590;48.154;11.514;2023-01-29T07:38:54;19.53;;;12.63;;
20859;SDS011;10590;48.154;11.514;2023-01-29T07:43:56;18.07;;;12.87;;
20859;SDS011;10590;48.154;11.514;2023-01-29T07:48:57;16.73;;;12.30;;
20859;SDS011;10590;48.154;11.514;2023-01-29T07:54:00;18.17;;;12.53;;
20859;SDS011;10590;48.154;11.514;2023-01-29T07:59:02;19.90;;;13.43;;
20859;SDS011;10590;48.154;11.514;2023-01-29T08:04:03;19.50;;;12.87;;
20859;SDS011;10590;48.154;11.514;2023-01-29T08:09:07;21.93;;;13.20;;
20859;SDS011;10590;48.154;11.514;2023-01-29T08:14:08;18.90;;;12.37;;
20859;SDS011;10590;48.154;11.514;2023-01-29T08:19:10;19.70;;;11.70;;
20859;SDS011;10590;48.154;11.514;2023-01-29T08:24:13;16.47;;;10.90;;
20859;SDS011;10590;48.154;11.514;2023-01-29T08:29:14;20.53;;;13.10;;
20859;SDS011;10590;48.154;11.514;2023-01-29T08:34:17;15.70;;;10.80;;
20859;SDS011;10590;48.154;11.514;2023-01-29T08:39:20;16.50;;;10.77;;
20859;SDS011;10590;48.154;11.514;2023-01-29T08:44:21;17.23;;;10.57;;
20859;SDS011;10590;48.154;11.514;2023-01-29T08:49:23;16.10;;;10.53;;
20859;SDS011;10590;48.154;11.514;2023-01-29T08:54:29;16.20;;;9.90;;
20859;SDS011;10590;48.154;11.514;2023-01-29T08:59:33;14.67;;;10.17;;
20859;SDS011;10590;48.154;11.514;2023-01-29T09:04:34;15.17;;;10.70;;
20859;SDS011;10590;48.154;11.514;2023-01-29T09:09:37;17.27;;;11.60;;
20859;SDS011;10590;48.154;11.514;2023-01-29T09:14:39;20.57;;;12.93;;
20859;SDS011;10590;48.154;11.514;2023-01-29T09:19:41;16.67;;;11.97;;
20859;SDS011;10590;48.154;11.514;2023-01-29T09:24:44;18.43;;;12.63;;
20859;SDS011;10590;48.154;11.514;2023-01-29T09:29:45;21.17;;;13.07;;
20859;SDS011;10590;48.154;11.514;2023-01-29T09:34:47;23.23;;;14.97;;
20859;SDS011;10590;48.154;11.514;2023-01-29T09:39:50;22.17;;;14.00;;
20859;SDS011;10590;48.154;11.514;2023-01-29T09:44:53;19.40;;;14.20;;
20859;SDS011;10590;48.154;11.514;2023-01-29T09:50:01;22.97;;;15.40;;
20859;SDS011;10590;48.154;11.514;2023-01-29T09:55:11;20.80;;;14.90;;
20859;SDS011;10590;48.154;11.514;2023-01-29T10:00:22;22.30;;;14.00;;
20859;SDS011;10590;48.154;11.514;2023-01-29T10:05:28;19.77;;;12.70;;
20859;SDS011;10590;48.154;11.514;2023-01-29T10:10:46;19.13;;;13.90;;
20859;SDS011;10590;48.154;11.514;2023-01-29T10:15:57;21.17;;;14.73;;
20859;SDS011;10590;48.154;11.514;2023-01-29T10:21:12;20.43;;;14.03;;
20859;SDS011;10590;48.154;11.514;2023-01-29T10:26:29;18.40;;;13.33;;
20859;SDS011;10590;48.154;11.514;2023-01-29T10:31:36;20.50;;;14.73;;
20859;SDS011;10590;48.154;11.514;2023-01-29T10:36:42;19.93;;;14.33;;
20859;SDS011;10590;48.154;11.514;2023-01-29T10:42:03;22.13;;;14.17;;
20859;SDS011;10590;48.154;11.514;2023-01-29T10:47:28;17.67;;;13.63;;
20859;SDS011;10590;48.154;11.514;2023-01-29T10:52:46;16.57;;;11.97;;
20859;SDS011;10590;48.154;11.514;2023-01-29T10:58:03;22.90;;;13.80;;
20859;SDS011;10590;48.154;11.514;2023-01-29T11:03:12;19.87;;;12.57;;
20859;SDS011;10590;48.154;11.514;2023-01-29T11:08:18;15.17;;;11.97;;
20859;SDS011;10590;48.154;11.514;2023-01-29T11:13:24;18.30;;;12.50;;
20859;SDS011;10590;48.154;11.514;2023-01-29T11:24:03;16.37;;;11.57;;
20859;SDS011;10590;48.154;11.514;2023-01-29T11:29:25;21.17;;;13.67;;
20859;SDS011;10590;48.154;11.514;2023-01-29T11:34:31;17.43;;;12.40;;
20859;SDS011;10590;48.154;11.514;2023-01-29T11:39:33;16.87;;;11.90;;
20859;SDS011;10590;48.154;11.514;2023-01-29T11:44:44;20.47;;;13.33;;
20859;SDS011;10590;48.154;11.514;2023-01-29T11:49:46;16.37;;;11.73;;
20859;SDS011;10590;48.154;11.514;2023-01-29T11:54:51;16.83;;;12.27;;
20859;SDS011;10590;48.154;11.514;2023-01-29T11:59:57;21.73;;;13.43;;
20859;SDS011;10590;48.154;11.514;2023-01-29T12:05:02;19.07;;;12.97;;
20859;SDS011;10590;48.154;11.514;2023-01-29T12:10:27;20.33;;;13.60;;
20859;SDS011;10590;48.154;11.514;2023-01-29T12:15:32;20.87;;;13.83;;
20859;SDS011;10590;48.154;11.514;2023-01-29T12:20:34;20.27;;;14.63;;
20859;SDS011;10590;48.154;11.514;2023-01-29T12:25:43;20.63;;;13.83;;
20859;SDS011;10590;48.154;11.514;2023-01-29T12:31:04;20.00;;;13.43;;
20859;SDS011;10590;48.154;11.514;2023-01-29T12:36:13;20.07;;;13.20;;
20859;SDS011;10590;48.154;11.514;2023-01-29T12:41:24;27.83;;;14.77;;
20859;SDS011;10590;48.154;11.514;2023-01-29T12:46:33;21.80;;;14.33;;
20859;SDS011;10590;48.154;11.514;2023-01-29T12:51:41;18.97;;;13.87;;
20859;SDS011;10590;48.154;11.514;2023-01-29T12:56:49;21.73;;;14.70;;
20859;SDS011;10590;48.154;11.514;2023-01-29T13:01:57;19.40;;;13.33;;
20859;SDS011;10590;48.154;11.514;2023-01-29T13:07:05;20.57;;;14.37;;
20859;SDS011;10590;48.154;11.514;2023-01-29T13:12:12;20.60;;;14.60;;
20859;SDS011;10590;48.154;11.514;2023-01-29T13:17:20;23.10;;;14.87;;
20859;SDS011;10590;48.154;11.514;2023-01-29T13:22:26;20.93;;;14.50;;
20859;SDS011;10590;48.154;11.514;2023-01-29T13:27:32;26.33;;;16.27;;
20859;SDS011;10590;48.154;11.514;2023-01-29T13:32:36;22.13;;;14.10;;
20859;SDS011;10590;48.154;11.514;2023-01-29T13:37:39;19.13;;;14.00;;
20859;SDS011;10590;48.154;11.514;2023-01-29T13:42:47;20.30;;;13.10;;
20859;SDS011;10590;48.154;11.514;2023-01-29T13:47:53;19.47;;;12.57;;
20859;SDS011;10590;48.154;11.514;2023-01-29T13:53:16;18.63;;;13.10;;
20859;SDS011;10590;48.154;11.514;2023-01-29T14:03:55;18.60;;;12.53;;
20859;SDS011;10590;48.154;11.514;2023-01-29T14:08:57;19.40;;;12.33;;
20859;SDS011;10590;48.154;11.514;2023-01-29T14:14:00;17.83;;;12.10;;
20859;SDS011;10590;48.154;11.514;2023-01-29T14:19:03;16.30;;;11.20;;
20859;SDS011;10590;48.154;11.514;2023-01-29T14:24:10;18.87;;;12.57;;
20859;SDS011;10590;48.154;11.514;2023-01-29T14:29:18;18.63;;;12.30;;
20859;SDS011;10590;48.154;11.514;2023-01-29T14:34:27;16.07;;;11.83;;
20859;SDS011;10590;48.154;11.514;2023-01-29T14:39:40;15.37;;;11.47;;
20859;SDS011;10590;48.154;11.514;2023-01-29T14:44:52;18.93;;;13.03;;
20859;SDS011;10590;48.154;11.514;2023-01-29T14:50:00;18.80;;;11.93;;
20859;SDS011;10590;48.154;11.514;2023-01-29T14:55:04;18.83;;;13.10;;
20859;SDS011;10590;48.154;11.514;2023-01-29T15:00:13;18.27;;;11.80;;
20859;SDS011;10590;48.154;11.514;2023-01-29T15:05:21;17.37;;;11.67;;
20859;SDS011;10590;48.154;11.514;2023-01-29T15:10:39;16.27;;;11.47;;
20859;SDS011;10590;48.154;11.514;2023-01-29T15:15:45;19.33;;;12.47;;
20859;SDS011;10590;48.154;11.514;2023-01-29T15:21:01;20.47;;;11.97;;
20859;SDS011;10590;48.154;11.514;2023-01-29T15:26:04;20.73;;;13.23;;
20859;SDS011;10590;48.154;11.514;2023-01-29T15:31:11;18.83;;;12.80;;
20859;SDS011;10590;48.154;11.514;2023-01-29T15:36:18;17.33;;;12.00;;
20859;SDS011;10590;48.154;11.514;2023-01-29T15:41:22;18.50;;;12.73;;
20859;SDS011;10590;48.154;11.514;2023-01-29T15:46:24;17.17;;;12.93;;
20859;SDS011;10590;48.154;11.514;2023-01-29T15:51:29;18.03;;;12.97;;
20859;SDS011;10590;48.154;11.514;2023-01-29T15:56:32;95.13;;;38.57;;
20859;SDS011;10590;48.154;11.514;2023-01-29T16:01:37;19.77;;;13.43;;
20859;SDS011;10590;48.154;11.514;2023-01-29T16:06:40;18.47;;;12.90;;
20859;SDS011;10590;48.154;11.514;2023-01-29T16:11:45;19.40;;;13.03;;
20859;SDS011;10590;48.154;11.514;2023-01-29T16:16:49;18.83;;;13.13;;
20859;SDS011;10590;48.154;11.514;2023-01-29T16:21:55;24.23;;;13.90;;
20859;SDS011;10590;48.154;11.514;2023-01-29T16:27:00;20.67;;;13.23;;
20859;SDS011;10590;48.154;11.514;2023-01-29T16:32:08;21.70;;;14.43;;
20859;SDS011;10590;48.154;11.514;2023-01-29T16:37:18;19.53;;;13.43;;
20859;SDS011;10590;48.154;11.514;2023-01-29T16:42:27;17.93;;;12.67;;
20859;SDS011;10590;48.154;11.514;2023-01-29T16:47:31;20.27;;;12.83;;
20859;SDS011;10590;48.154;11.514;2023-01-29T16:52:35;19.40;;;12.47;;
20859;SDS011;10590;48.154;11.514;2023-01-29T16:57:37;20.97;;;13.07;;
20859;SDS011;10590;48.154;11.514;2023-01-29T17:02:40;21.57;;;15.13;;
20859;SDS011;10590;48.154;11.514;2023-01-29T17:07:44;22.83;;;14.83;;
20859;SDS011;10590;48.154;11.514;2023-01-29T17:12:48;25.73;;;15.10;;
20859;SDS011;10590;48.154;11.514;2023-01-29T17:17:54;26.50;;;15.87;;
20859;SDS011;10590;48.154;11.514;2023-01-29T17:22:57;30.50;;;16.53;;
20859;SDS011;10590;48.154;11.514;2023-01-29T17:27:59;23.33;;;15.10;;
20859;SDS011;10590;48.154;11.514;2023-01-29T17:33:07;24.37;;;15.10;;
20859;SDS011;10590;48.154;11.514;2023-01-29T17:38:13;22.57;;;15.10;;
20859;SDS011;10590;48.154;11.514;2023-01-29T17:43:15;22.43;;;13.67;;
20859;SDS011;10590;48.154;11.514;2023-01-29T17:48:18;22.53;;;15.50;;
20859;SDS011;10590;48.154;11.514;2023-01-29T17:53:23;25.23;;;14.73;;
20859;SDS011;10590;48.154;11.514;2023-01-29T17:58:25;19.13;;;13.33;;
20859;SDS011;10590;48.154;11.514;2023-01-29T18:03:27;23.53;;;14.23;;
20859;SDS011;10590;48.154;11.514;2023-01-29T18:08:30;20.40;;;14.60;;
20859;SDS011;10590;48.154;11.514;2023-01-29T18:13:34;24.80;;;14.70;;
20859;SDS011;10590;48.154;11.514;2023-01-29T18:18:36;23.27;;;14.83;;
20859;SDS011;10590;48.154;11.514;2023-01-29T18:23:39;22.23;;;14.53;;
20859;SDS011;10590;48.154;11.514;2023-01-29T18:28:41;25.03;;;15.87;;
20859;SDS011;10590;48.154;11.514;2023-01-29T18:33:42;22.97;;;15.00;;
20859;SDS011;10590;48.154;11.514;2023-01-29T18:38:45;29.13;;;16.33;;
20859;SDS011;10590;48.154;11.514;2023-01-29T18:43:47;24.97;;;16.13;;
20859;SDS011;10590;48.154;11.514;2023-01-29T18:48:50;29.20;;;16.73;;
20859;SDS011;10590;48.154;11.514;2023-01-29T18:53:53;28.97;;;16.37;;
20859;SDS011;10590;48.154;11.514;2023-01-29T18:58:55;29.03;;;18.17;;
20859;SDS011;10590;48.154;11.514;2023-01-29T19:03:56;29.03;;;16.77;;
20859;SDS011;10590;48.154;11.514;2023-01-29T19:09:00;28.13;;;15.77;;
20859;SDS011;10590;48.154;11.514;2023-01-29T19:14:04;28.07;;;16.33;;
20859;SDS011;10590;48.154;11.514;2023-01-29T19:19:05;25.63;;;16.70;;
20859;SDS011;10590;48.154;11.514;2023-01-29T19:24:09;37.07;;;19.77;;
20859;SDS011;10590;48.154;11.514;2023-01-29T19:29:11;31.00;;;17.00;;
20859;SDS011;10590;48.154;11.514;2023-01-29T19:34:12;31.87;;;17.10;;
20859;SDS011;10590;48.154;11.514;2023-01-29T19:39:15;29.07;;;17.60;;
20859;SDS011;10590;48.154;11.514;2023-01-29T19:44:17;27.93;;;16.00;;
20859;SDS011;10590;48.154;11.514;2023-01-29T19:49:19;29.50;;;17.40;;
20859;SDS011;10590;48.154;11.514;2023-01-29T19:54:22;31.30;;;18.23;;
20859;SDS011;10590;48.154;11.514;2023-01-29T19:59:26;34.10;;;18.53;;
20859;SDS011;10590;48.154;11.514;2023-01-29T20:04:28;33.57;;;17.63;;
20859;SDS011;10590;48.154;11.514;2023-01-29T20:09:31;32.40;;;18.03;;
20859;SDS011;10590;48.154;11.514;2023-01-29T20:14:33;30.37;;;18.23;;
20859;SDS011;10590;48.154;11.514;2023-01-29T20:19:35;30.17;;;17.47;;
20859;SDS011;10590;48.154;11.514;2023-01-29T20:24:38;30.87;;;16.73;;
20859;SDS011;10590;48.154;11.514;2023-01-29T20:29:41;30.90;;;18.37;;
20859;SDS011;10590;48.154;11.514;2023-01-29T20:34:44;35.43;;;18.30;;
20859;SDS011;10590;48.154;11.514;2023-01-29T20:39:50;36.00;;;19.17;;
20859;SDS011;10590;48.154;11.514;2023-01-29T20:44:51;31.87;;;17.97;;
20859;SDS011;10590;48.154;11.514;2023-01-29T20:49:53;32.40;;;17.53;;
20859;SDS011;10590;48.154;11.514;2023-01-29T20:54:56;32.27;;;18.33;;
20859;SDS011;10590;48.154;11.514;2023-01-29T20:59:58;28.50;;;15.87;;
20859;SDS011;10590;48.154;11.514;2023-01-29T21:05:00;30.00;;;16.23;;
20859;SDS011;10590;48.154;11.514;2023-01-29T21:10:03;32.93;;;16.90;;
20859;SDS011;10590;48.154;11.514;2023-01-29T21:15:06;35.00;;;16.77;;
20859;SDS011;10590;48.154;11.514;2023-01-29T21:20:09;29.60;;;17.40;;
20859;SDS011;10590;48.154;11.514;2023-01-29T21:25:13;34.83;;;19.97;;
20859;SDS011;10590;48.154;11.514;2023-01-29T21:30:15;32.00;;;18.13;;
20859;SDS011;10590;48.154;11.514;2023-01-29T21:35:17;31.77;;;18.27;;
20859;SDS011;10590;48.154;11.514;2023-01-29T21:40:20;36.27;;;20.73;;
20859;SDS011;10590;48.154;11.514;2023-01-29T21:45:24;36.37;;;19.77;;
20859;SDS011;10590;48.154;11.514;2023-01-29T21:50:25;40.37;;;21.90;;
20859;SDS011;10590;48.154;11.514;2023-01-29T21:55:28;35.13;;;20.03;;
20859;SDS011;10590;48.154;11.514;2023-01-29T22:00:31;35.67;;;20.13;;
20859;SDS011;10590;48.154;11.514;2023-01-29T22:05:33;37.47;;;19.73;;
20859;SDS011;10590;48.154;11.514;2023-01-29T22:10:36;39.40;;;20.03;;
20859;SDS011;10590;48.154;11.514;2023-01-29T22:20:44;37.37;;;21.00;;
20859;SDS011;10590;48.154;11.514;2023-01-29T22:25:48;40.10;;;21.77;;
20859;SDS011;10590;48.154;11.514;2023-01-29T22:30:49;44.43;;;22.60;;
20859;SDS011;10590;48.154;11.514;2023-01-29T22:35:52;40.17;;;21.27;;
20859;SDS011;10590;48.154;11.514;2023-01-29T22:40:55;48.07;;;24.07;;
20859;SDS011;10590;48.154;11.514;2023-01-29T22:45:57;38.50;;;21.47;;
20859;SDS011;10590;48.154;11.514;2023-01-29T22:50:59;43.50;;;21.83;;
20859;SDS011;10590;48.154;11.514;2023-01-29T22:56:10;47.20;;;22.23;;
20859;SDS011;10590;48.154;11.514;2023-01-29T23:01:12;38.77;;;20.43;;
20859;SDS011;10590;48.154;11.514;2023-01-29T23:06:14;44.57;;;22.00;;
20859;SDS011;10590;48.154;11.514;2023-01-29T23:11:18;43.07;;;21.97;;
20859;SDS011;10590;48.154;11.514;2023-01-29T23:16:22;44.70;;;23.10;;
20859;SDS011;10590;48.154;11.514;2023-01-29T23:21:26;43.30;;;21.93;;
20859;SDS011;10590;48.154;11.514;2023-01-29T23:26:29;42.40;;;21.70;;
20859;SDS011;10590;48.154;11.514;2023-01-29T23:31:48;40.57;;;21.17;;
20859;SDS011;10590;48.154;11.514;2023-01-29T23:36:49;42.10;;;20.93;;
20859;SDS011;10590;48.154;11.514;2023-01-29T23:41:52;44.77;;;22.40;;
20859;SDS011;10590;48.154;11.514;2023-01-29T23:46:54;41.90;;;21.43;;
20859;SDS011;10590;48.154;11.514;2023-01-29T23:51:56;46.10;;;22.90;;
20859;SDS011;10590;48.154;11.514;2023-01-29T23:56:59;43.00;;;21.43;;
